sensor_id;sensor_type;location;lat;lon;timestamp;pressure;altitude;pressure_sealevel;temperature;humidity
20003;BME280;10162;41.600;23.806;2024-03-02T00:01:17;94627.53;;;8.03;100.00
20003;BME280;10162;41.600;23.806;2024-03-02T00:07:06;94642.91;;;7.98;100.00
20003;BME280;10162;41.600;23.806;2024-03-02T00:09:33;94635.03;;;7.84;100.00
20003;BME280;10162;41.600;23.806;2024-03-02T00:12:00;94647.03;;;8.13;100.00
20003;BME280;10162;41.600;23.806;2024-03-02T00:17:34;94643.69;;;7.92;100.00
20003;BME280;10162;41.600;23.806;2024-03-02T00:20:00;94623.84;;;7.63;100.00
20003;BME280;10162;41.600;23.806;2024-03-02T00:22:25;94610.16;;;7.54;100.00
20003;BME280;10162;41.600;23.806;2024-03-02T00:25:03;94609.19;;;7.83;100.00
20003;BME280;10162;41.600;23.806;2024-03-02T00:27:29;94572.94;;;7.54;100.00
20003;BME280;10162;41.600;23.806;2024-03-02T00:29:55;94639.88;;;7.94;100.00
20003;BME280;10162;41.600;23.806;2024-03-02T00:32:22;94636.75;;;7.77;100.00
20003;BME280;10162;41.600;23.806;2024-03-02T00:34:57;94626.69;;;7.68;100.00
20003;BME280;10162;41.600;23.806;2024-03-02T00:37:22;94589.63;;;7.38;100.00
20003;BME280;10162;41.600;23.806;2024-03-02T00:39:49;94594.44;;;7.62;100.00
20003;BME280;10162;41.600;23.806;2024-03-02T00:42:15;94607.63;;;7.88;100.00
20003;BME280;10162;41.600;23.806;2024-03-02T00:44:42;94599.75;;;7.82;100.00
20003;BME280;10162;41.600;23.806;2024-03-02T00:47:07;94591.72;;;7.77;100.00
20003;BME280;10162;41.600;23.806;2024-03-02T00:49:35;94604.72;;;7.77;100.00
20003;BME280;10162;41.600;23.806;2024-03-02T00:52:01;94583.69;;;7.72;100.00
20003;BME280;10162;41.600;23.806;2024-03-02T00:54:33;94596.56;;;7.86;100.00
20003;BME280;10162;41.600;23.806;2024-03-02T00:56:59;94574.72;;;7.81;100.00
20003;BME280;10162;41.600;23.806;2024-03-02T00:59:25;94573.41;;;7.92;100.00
20003;BME280;10162;41.600;23.806;2024-03-02T01:01:51;94573.97;;;7.87;100.00
20003;BME280;10162;41.600;23.806;2024-03-02T01:04:18;94554.78;;;7.60;100.00
20003;BME280;10162;41.600;23.806;2024-03-02T01:06:44;94590.16;;;7.82;100.00
20003;BME280;10162;41.600;23.806;2024-03-02T01:09:11;94598.19;;;7.87;100.00
20003;BME280;10162;41.600;23.806;2024-03-02T01:11:37;94572.75;;;7.83;100.00
20003;BME280;10162;41.600;23.806;2024-03-02T01:17:57;94550.63;;;7.66;100.00
20003;BME280;10162;41.600;23.806;2024-03-02T01:20:23;94583.81;;;7.92;100.00
20003;BME280;10162;41.600;23.806;2024-03-02T01:23:02;94563.81;;;7.64;100.00
20003;BME280;10162;41.600;23.806;2024-03-02T01:25:28;94550.25;;;7.69;100.00
20003;BME280;10162;41.600;23.806;2024-03-02T01:27:54;94590.63;;;7.93;100.00
20003;BME280;10162;41.600;23.806;2024-03-02T01:30:19;94580.16;;;7.86;100.00
20003;BME280;10162;41.600;23.806;2024-03-02T01:32:57;94567.28;;;7.71;100.00
20003;BME280;10162;41.600;23.806;2024-03-02T01:35:25;94548.66;;;7.68;100.00
20003;BME280;10162;41.600;23.806;2024-03-02T01:37:52;94544.63;;;7.65;100.00
20003;BME280;10162;41.600;23.806;2024-03-02T01:40:17;94558.31;;;7.80;100.00
20003;BME280;10162;41.600;23.806;2024-03-02T01:46:16;94577.19;;;7.89;100.00
20003;BME280;10162;41.600;23.806;2024-03-02T01:48:42;94535.78;;;7.60;100.00
20003;BME280;10162;41.600;23.806;2024-03-02T01:51:08;94559.00;;;7.61;100.00
20003;BME280;10162;41.600;23.806;2024-03-02T01:53:41;94550.97;;;7.56;100.00
20003;BME280;10162;41.600;23.806;2024-03-02T01:56:07;94522.84;;;7.38;100.00
20003;BME280;10162;41.600;23.806;2024-03-02T01:58:32;94551.44;;;7.66;100.00
20003;BME280;10162;41.600;23.806;2024-03-02T02:00:58;94543.41;;;7.61;100.00
20003;BME280;10162;41.600;23.806;2024-03-02T02:06:40;94555.47;;;7.75;100.00
20003;BME280;10162;41.600;23.806;2024-03-02T02:09:06;94556.09;;;7.77;100.00
20003;BME280;10162;41.600;23.806;2024-03-02T02:11:34;94523.63;;;7.67;100.00
20003;BME280;10162;41.600;23.806;2024-03-02T02:17:12;94551.34;;;7.87;100.00
20003;BME280;10162;41.600;23.806;2024-03-02T02:19:40;94548.91;;;7.79;100.00
20003;BME280;10162;41.600;23.806;2024-03-02T02:22:06;94532.69;;;7.77;100.00
20003;BME280;10162;41.600;23.806;2024-03-02T02:28:26;94545.59;;;7.64;100.00
20003;BME280;10162;41.600;23.806;2024-03-02T02:30:52;94526.81;;;7.62;100.00
20003;BME280;10162;41.600;23.806;2024-03-02T02:33:30;94526.84;;;7.69;100.00
20003;BME280;10162;41.600;23.806;2024-03-02T02:35:55;94533.41;;;7.65;100.00
20003;BME280;10162;41.600;23.806;2024-03-02T02:38:21;94546.88;;;7.75;100.00
20003;BME280;10162;41.600;23.806;2024-03-02T02:40:47;94550.50;;;7.80;100.00
20003;BME280;10162;41.600;23.806;2024-03-02T02:43:32;94562.56;;;7.88;100.00
20003;BME280;10162;41.600;23.806;2024-03-02T02:45:57;94559.34;;;7.86;100.00
20003;BME280;10162;41.600;23.806;2024-03-02T02:48:23;94553.34;;;7.85;100.00
20003;BME280;10162;41.600;23.806;2024-03-02T02:50:48;94560.81;;;7.95;100.00
20003;BME280;10162;41.600;23.806;2024-03-02T02:53:30;94545.69;;;7.77;100.00
20003;BME280;10162;41.600;23.806;2024-03-02T02:55:56;94527.97;;;7.60;100.00
20003;BME280;10162;41.600;23.806;2024-03-02T02:58:22;94558.72;;;7.77;100.00
20003;BME280;10162;41.600;23.806;2024-03-02T03:00:47;94537.66;;;7.72;100.00
20003;BME280;10162;41.600;23.806;2024-03-02T03:03:43;94572.25;;;8.01;100.00
20003;BME280;10162;41.600;23.806;2024-03-02T03:06:10;94552.88;;;7.75;100.00
20003;BME280;10162;41.600;23.806;2024-03-02T03:08:36;94551.44;;;7.66;100.00
20003;BME280;10162;41.600;23.806;2024-03-02T03:11:01;94560.63;;;7.62;100.00
20003;BME280;10162;41.600;23.806;2024-03-02T03:13:56;94567.78;;;7.60;100.00
20003;BME280;10162;41.600;23.806;2024-03-02T03:16:22;94545.91;;;7.48;100.00
20003;BME280;10162;41.600;23.806;2024-03-02T03:18:48;94551.56;;;7.52;100.00
20003;BME280;10162;41.600;23.806;2024-03-02T03:21:16;94557.50;;;7.73;100.00
20003;BME280;10162;41.600;23.806;2024-03-02T03:23:46;94548.69;;;7.74;100.00
20003;BME280;10162;41.600;23.806;2024-03-02T03:26:12;94544.53;;;7.80;100.00
20003;BME280;10162;41.600;23.806;2024-03-02T03:28:37;94512.63;;;7.37;100.00
20003;BME280;10162;41.600;23.806;2024-03-02T03:31:04;94547.41;;;7.64;100.00
20003;BME280;10162;41.600;23.806;2024-03-02T03:36:23;94534.59;;;7.62;100.00
20003;BME280;10162;41.600;23.806;2024-03-02T03:38:48;94546.69;;;7.76;100.00
20003;BME280;10162;41.600;23.806;2024-03-02T03:41:14;94558.78;;;7.91;100.00
20003;BME280;10162;41.600;23.806;2024-03-02T03:43:52;94553.50;;;7.77;100.00
20003;BME280;10162;41.600;23.806;2024-03-02T03:46:17;94562.97;;;7.85;100.00
20003;BME280;10162;41.600;23.806;2024-03-02T03:48:43;94533.63;;;7.70;100.00
20003;BME280;10162;41.600;23.806;2024-03-02T03:51:09;94548.13;;;7.79;100.00
20003;BME280;10162;41.600;23.806;2024-03-02T03:53:41;94535.69;;;7.74;100.00
20003;BME280;10162;41.600;23.806;2024-03-02T03:56:07;94531.19;;;7.62;100.00
20003;BME280;10162;41.600;23.806;2024-03-02T03:58:33;94541.66;;;7.68;100.00
20003;BME280;10162;41.600;23.806;2024-03-02T04:00:58;94538.38;;;7.60;100.00
20003;BME280;10162;41.600;23.806;2024-03-02T04:03:30;94525.72;;;7.50;100.00
20003;BME280;10162;41.600;23.806;2024-03-02T04:05:56;94512.75;;;7.57;100.00
20003;BME280;10162;41.600;23.806;2024-03-02T04:08:22;94541.25;;;7.71;100.00
20003;BME280;10162;41.600;23.806;2024-03-02T04:10:48;94503.25;;;7.42;100.00
20003;BME280;10162;41.600;23.806;2024-03-02T04:13:19;94536.06;;;7.71;100.00
20003;BME280;10162;41.600;23.806;2024-03-02T04:15:45;94549.88;;;7.72;100.00
20003;BME280;10162;41.600;23.806;2024-03-02T04:18:10;94544.81;;;7.64;100.00
20003;BME280;10162;41.600;23.806;2024-03-02T04:20:37;94533.22;;;7.66;100.00
20003;BME280;10162;41.600;23.806;2024-03-02T04:23:07;94503.94;;;7.51;100.00
20003;BME280;10162;41.600;23.806;2024-03-02T04:25:33;94540.69;;;7.76;100.00
20003;BME280;10162;41.600;23.806;2024-03-02T04:27:59;94541.94;;;7.86;100.00
20003;BME280;10162;41.600;23.806;2024-03-02T04:30:25;94525.91;;;7.83;100.00
20003;BME280;10162;41.600;23.806;2024-03-02T04:32:59;94530.22;;;7.69;100.00
20003;BME280;10162;41.600;23.806;2024-03-02T04:35:24;94541.53;;;7.83;100.00
20003;BME280;10162;41.600;23.806;2024-03-02T04:37:51;94551.16;;;7.89;100.00
20003;BME280;10162;41.600;23.806;2024-03-02T04:40:16;94551.63;;;7.99;100.00
20003;BME280;10162;41.600;23.806;2024-03-02T04:45:32;94523.13;;;7.84;100.00
20003;BME280;10162;41.600;23.806;2024-03-02T04:47:58;94524.47;;;7.74;100.00
20003;BME280;10162;41.600;23.806;2024-03-02T04:50:23;94534.88;;;7.74;100.00
20003;BME280;10162;41.600;23.806;2024-03-02T04:52:59;94554.13;;;7.86;100.00
20003;BME280;10162;41.600;23.806;2024-03-02T04:55:25;94541.06;;;7.73;100.00
20003;BME280;10162;41.600;23.806;2024-03-02T04:58:11;94568.53;;;7.82;100.00
20003;BME280;10162;41.600;23.806;2024-03-02T05:00:37;94539.22;;;7.67;100.00
20003;BME280;10162;41.600;23.806;2024-03-02T05:03:03;94560.78;;;7.88;100.00
20003;BME280;10162;41.600;23.806;2024-03-02T05:05:28;94550.53;;;7.87;100.00
20003;BME280;10162;41.600;23.806;2024-03-02T05:07:54;94543.31;;;7.82;100.00
20003;BME280;10162;41.600;23.806;2024-03-02T05:10:20;94558.78;;;7.91;100.00
20003;BME280;10162;41.600;23.806;2024-03-02T05:12:56;94536.13;;;7.84;100.00
20003;BME280;10162;41.600;23.806;2024-03-02T05:15:22;94567.41;;;7.98;100.00
20003;BME280;10162;41.600;23.806;2024-03-02T05:17:48;94548.34;;;7.84;100.00
20003;BME280;10162;41.600;23.806;2024-03-02T05:20:13;94556.72;;;7.79;100.00
20003;BME280;10162;41.600;23.806;2024-03-02T05:22:39;94563.28;;;7.75;100.00
20003;BME280;10162;41.600;23.806;2024-03-02T05:25:06;94555.06;;;7.72;100.00
20003;BME280;10162;41.600;23.806;2024-03-02T05:27:32;94573.91;;;7.80;100.00
20003;BME280;10162;41.600;23.806;2024-03-02T05:29:58;94551.09;;;7.48;100.00
20003;BME280;10162;41.600;23.806;2024-03-02T05:32:24;94550.94;;;7.50;100.00
20003;BME280;10162;41.600;23.806;2024-03-02T05:35:01;94573.91;;;7.74;100.00
20003;BME280;10162;41.600;23.806;2024-03-02T05:37:28;94553.00;;;7.61;100.00
20003;BME280;10162;41.600;23.806;2024-03-02T05:39:54;94559.88;;;7.75;100.00
20003;BME280;10162;41.600;23.806;2024-03-02T05:42:19;94569.53;;;7.81;100.00
20003;BME280;10162;41.600;23.806;2024-03-02T05:44:45;94584.00;;;7.90;100.00
20003;BME280;10162;41.600;23.806;2024-03-02T05:47:11;94560.66;;;7.69;100.00
20003;BME280;10162;41.600;23.806;2024-03-02T05:49:36;94553.31;;;7.79;100.00
20003;BME280;10162;41.600;23.806;2024-03-02T05:52:02;94583.03;;;7.91;100.00
20003;BME280;10162;41.600;23.806;2024-03-02T05:57:47;94583.69;;;7.72;100.00
20003;BME280;10162;41.600;23.806;2024-03-02T06:00:24;94563.75;;;7.51;100.00
20003;BME280;10162;41.600;23.806;2024-03-02T06:02:55;94593.78;;;7.88;100.00
20003;BME280;10162;41.600;23.806;2024-03-02T06:05:21;94582.25;;;7.69;100.00
20003;BME280;10162;41.600;23.806;2024-03-02T06:07:47;94574.97;;;7.58;100.00
20003;BME280;10162;41.600;23.806;2024-03-02T06:10:13;94587.09;;;7.72;100.00
20003;BME280;10162;41.600;23.806;2024-03-02T06:13:00;94603.75;;;7.78;100.00
20003;BME280;10162;41.600;23.806;2024-03-02T06:15:25;94568.38;;;7.56;100.00
20003;BME280;10162;41.600;23.806;2024-03-02T06:17:51;94592.13;;;7.74;100.00
20003;BME280;10162;41.600;23.806;2024-03-02T06:20:17;94600.00;;;7.87;100.00
20003;BME280;10162;41.600;23.806;2024-03-02T06:22:51;94603.31;;;8.09;100.00
20003;BME280;10162;41.600;23.806;2024-03-02T06:25:17;94599.50;;;8.05;100.00
20003;BME280;10162;41.600;23.806;2024-03-02T06:27:43;94606.97;;;8.14;100.00
20003;BME280;10162;41.600;23.806;2024-03-02T06:30:09;94612.63;;;8.24;100.00
20003;BME280;10162;41.600;23.806;2024-03-02T06:32:35;94603.56;;;8.20;100.00
20003;BME280;10162;41.600;23.806;2024-03-02T06:35:01;94602.00;;;8.26;100.00
20003;BME280;10162;41.600;23.806;2024-03-02T06:37:26;94570.16;;;7.83;100.00
20003;BME280;10162;41.600;23.806;2024-03-02T06:39:52;94581.63;;;7.95;100.00
20003;BME280;10162;41.600;23.806;2024-03-02T06:42:18;94622.34;;;8.03;100.00
20003;BME280;10162;41.600;23.806;2024-03-02T06:45:01;94586.59;;;7.90;100.00
20003;BME280;10162;41.600;23.806;2024-03-02T06:47:27;94593.69;;;8.03;100.00
20003;BME280;10162;41.600;23.806;2024-03-02T06:49:55;94586.81;;;8.29;100.00
20003;BME280;10162;41.600;23.806;2024-03-02T06:52:22;94610.56;;;8.48;100.00
20003;BME280;10162;41.600;23.806;2024-03-02T06:55:04;94579.59;;;8.25;100.00
20003;BME280;10162;41.600;23.806;2024-03-02T06:57:30;94603.72;;;8.40;100.00
20003;BME280;10162;41.600;23.806;2024-03-02T06:59:55;94590.88;;;8.39;100.00
20003;BME280;10162;41.600;23.806;2024-03-02T07:02:27;94585.25;;;8.35;100.00
20003;BME280;10162;41.600;23.806;2024-03-02T07:05:04;94604.59;;;8.54;100.00
20003;BME280;10162;41.600;23.806;2024-03-02T07:07:29;94599.97;;;8.56;100.00
20003;BME280;10162;41.600;23.806;2024-03-02T07:09:56;94601.97;;;8.54;100.00
20003;BME280;10162;41.600;23.806;2024-03-02T07:12:21;94606.16;;;8.48;100.00
20003;BME280;10162;41.600;23.806;2024-03-02T07:14:47;94606.94;;;8.42;100.00
20003;BME280;10162;41.600;23.806;2024-03-02T07:17:32;94604.53;;;8.41;100.00
20003;BME280;10162;41.600;23.806;2024-03-02T07:19:58;94614.19;;;8.53;100.00
20003;BME280;10162;41.600;23.806;2024-03-02T07:22:24;94602.81;;;8.67;100.00
20003;BME280;10162;41.600;23.806;2024-03-02T07:27:53;94597.41;;;8.69;100.00
20003;BME280;10162;41.600;23.806;2024-03-02T07:30:21;94560.63;;;8.31;100.00
20003;BME280;10162;41.600;23.806;2024-03-02T07:32:52;94568.22;;;8.33;100.00
20003;BME280;10162;41.600;23.806;2024-03-02T07:35:19;94586.38;;;8.67;100.00
20003;BME280;10162;41.600;23.806;2024-03-02T07:37:45;94588.22;;;8.80;100.00
20003;BME280;10162;41.600;23.806;2024-03-02T07:40:11;94586.81;;;8.84;100.00
20003;BME280;10162;41.600;23.806;2024-03-02T07:42:59;94634.81;;;9.02;100.00
20003;BME280;10162;41.600;23.806;2024-03-02T07:45:25;94630.63;;;9.21;100.00
20003;BME280;10162;41.600;23.806;2024-03-02T07:47:51;94608.34;;;9.12;100.00
20003;BME280;10162;41.600;23.806;2024-03-02T07:50:17;94563.81;;;8.94;100.00
20003;BME280;10162;41.600;23.806;2024-03-02T07:56:37;94623.44;;;9.43;100.00
20003;BME280;10162;41.600;23.806;2024-03-02T07:59:04;94646.31;;;9.54;100.00
20003;BME280;10162;41.600;23.806;2024-03-02T08:01:30;94602.75;;;9.22;100.00
20003;BME280;10162;41.600;23.806;2024-03-02T08:07:04;94643.91;;;9.39;100.00
20003;BME280;10162;41.600;23.806;2024-03-02T08:09:30;94613.00;;;9.36;100.00
20003;BME280;10162;41.600;23.806;2024-03-02T08:11:56;94633.47;;;9.59;100.00
20003;BME280;10162;41.600;23.806;2024-03-02T08:14:41;94657.59;;;9.68;100.00
20003;BME280;10162;41.600;23.806;2024-03-02T08:17:07;94637.69;;;9.67;100.00
20003;BME280;10162;41.600;23.806;2024-03-02T08:19:35;94624.44;;;9.55;100.00
20003;BME280;10162;41.600;23.806;2024-03-02T08:22:01;94638.47;;;9.80;100.00
20003;BME280;10162;41.600;23.806;2024-03-02T08:24:35;94629.25;;;9.78;100.00
20003;BME280;10162;41.600;23.806;2024-03-02T08:27:01;94650.53;;;9.81;100.00
20003;BME280;10162;41.600;23.806;2024-03-02T08:32:59;94642.72;;;9.94;100.00
20003;BME280;10162;41.600;23.806;2024-03-02T08:35:26;94656.38;;;10.16;100.00
20003;BME280;10162;41.600;23.806;2024-03-02T08:37:54;94660.97;;;10.08;100.00
20003;BME280;10162;41.600;23.806;2024-03-02T08:40:20;94647.13;;;9.94;100.00
20003;BME280;10162;41.600;23.806;2024-03-02T08:42:53;94611.75;;;9.91;100.00
20003;BME280;10162;41.600;23.806;2024-03-02T08:45:19;94635.25;;;9.98;100.00
20003;BME280;10162;41.600;23.806;2024-03-02T08:47:46;94634.50;;;9.84;100.00
20003;BME280;10162;41.600;23.806;2024-03-02T08:50:12;94675.25;;;10.18;100.00
20003;BME280;10162;41.600;23.806;2024-03-02T08:55:54;94645.69;;;10.11;100.00
20003;BME280;10162;41.600;23.806;2024-03-02T08:58:20;94642.50;;;10.22;100.00
20003;BME280;10162;41.600;23.806;2024-03-02T09:00:47;94668.81;;;10.34;100.00
20003;BME280;10162;41.600;23.806;2024-03-02T09:06:18;94673.03;;;10.35;100.00
20003;BME280;10162;41.600;23.806;2024-03-02T09:08:45;94673.41;;;10.39;100.00
20003;BME280;10162;41.600;23.806;2024-03-02T09:11:11;94645.31;;;10.21;100.00
20003;BME280;10162;41.600;23.806;2024-03-02T09:13:39;94669.78;;;10.53;100.00
20003;BME280;10162;41.600;23.806;2024-03-02T09:16:05;94660.56;;;10.30;100.00
20003;BME280;10162;41.600;23.806;2024-03-02T09:18:31;94665.09;;;10.61;100.00
20003;BME280;10162;41.600;23.806;2024-03-02T09:20:57;94655.41;;;10.75;100.00
20003;BME280;10162;41.600;23.806;2024-03-02T09:23:25;94638.22;;;10.99;100.00
20003;BME280;10162;41.600;23.806;2024-03-02T09:25:51;94646.31;;;11.22;100.00
20003;BME280;10162;41.600;23.806;2024-03-02T09:28:17;94650.56;;;11.23;100.00
20003;BME280;10162;41.600;23.806;2024-03-02T09:30:43;94657.66;;;11.16;100.00
20003;BME280;10162;41.600;23.806;2024-03-02T09:33:09;94634.63;;;10.93;100.00
20003;BME280;10162;41.600;23.806;2024-03-02T09:35:35;94649.22;;;11.14;100.00
20003;BME280;10162;41.600;23.806;2024-03-02T09:38:01;94626.59;;;11.26;100.00
20003;BME280;10162;41.600;23.806;2024-03-02T09:40:26;94630.34;;;11.37;100.00
20003;BME280;10162;41.600;23.806;2024-03-02T09:42:54;94670.34;;;11.82;100.00
20003;BME280;10162;41.600;23.806;2024-03-02T09:45:23;94662.63;;;11.87;100.00
20003;BME280;10162;41.600;23.806;2024-03-02T09:47:49;94654.44;;;11.14;100.00
20003;BME280;10162;41.600;23.806;2024-03-02T09:50:15;94620.66;;;11.44;100.00
20003;BME280;10162;41.600;23.806;2024-03-02T09:52:48;94646.38;;;11.47;100.00
20003;BME280;10162;41.600;23.806;2024-03-02T09:55:15;94650.34;;;11.87;100.00
20003;BME280;10162;41.600;23.806;2024-03-02T09:57:41;94644.41;;;11.74;100.00
20003;BME280;10162;41.600;23.806;2024-03-02T10:00:08;94618.44;;;11.41;100.00
20003;BME280;10162;41.600;23.806;2024-03-02T10:02:34;94651.63;;;11.47;100.00
20003;BME280;10162;41.600;23.806;2024-03-02T10:04:59;94627.13;;;11.03;100.00
20003;BME280;10162;41.600;23.806;2024-03-02T10:07:25;94640.53;;;11.83;100.00
20003;BME280;10162;41.600;23.806;2024-03-02T10:09:51;94643.44;;;12.18;100.00
20003;BME280;10162;41.600;23.806;2024-03-02T10:12:19;94621.69;;;11.92;100.00
20003;BME280;10162;41.600;23.806;2024-03-02T10:14:45;94615.91;;;12.09;100.00
20003;BME280;10162;41.600;23.806;2024-03-02T10:17:12;94630.59;;;12.10;100.00
20003;BME280;10162;41.600;23.806;2024-03-02T10:19:39;94615.81;;;11.97;100.00
20003;BME280;10162;41.600;23.806;2024-03-02T10:22:07;94612.72;;;12.07;100.00
20003;BME280;10162;41.600;23.806;2024-03-02T10:24:42;94628.59;;;12.12;100.00
20003;BME280;10162;41.600;23.806;2024-03-02T10:27:23;94626.13;;;12.35;100.00
20003;BME280;10162;41.600;23.806;2024-03-02T10:29:49;94624.50;;;12.70;100.00
20003;BME280;10162;41.600;23.806;2024-03-02T10:32:15;94619.59;;;12.62;100.00
20003;BME280;10162;41.600;23.806;2024-03-02T10:34:42;94599.41;;;12.45;100.00
20003;BME280;10162;41.600;23.806;2024-03-02T10:37:10;94645.09;;;13.21;100.00
20003;BME280;10162;41.600;23.806;2024-03-02T10:39:37;94638.75;;;13.29;100.00
20003;BME280;10162;41.600;23.806;2024-03-02T10:42:09;94613.97;;;13.67;100.00
20003;BME280;10162;41.600;23.806;2024-03-02T10:44:36;94641.94;;;13.73;100.00
20003;BME280;10162;41.600;23.806;2024-03-02T10:47:03;94602.66;;;14.13;100.00
20003;BME280;10162;41.600;23.806;2024-03-02T10:49:41;94614.34;;;14.52;100.00
20003;BME280;10162;41.600;23.806;2024-03-02T10:52:08;94610.69;;;14.41;100.00
20003;BME280;10162;41.600;23.806;2024-03-02T10:54:39;94603.16;;;14.44;100.00
20003;BME280;10162;41.600;23.806;2024-03-02T10:57:07;94589.41;;;14.19;100.00
20003;BME280;10162;41.600;23.806;2024-03-02T10:59:36;94622.81;;;14.42;100.00
20003;BME280;10162;41.600;23.806;2024-03-02T11:02:03;94601.91;;;14.87;100.00
20003;BME280;10162;41.600;23.806;2024-03-02T11:04:39;94619.66;;;15.20;100.00
20003;BME280;10162;41.600;23.806;2024-03-02T11:07:07;94615.47;;;15.36;100.00
20003;BME280;10162;41.600;23.806;2024-03-02T11:09:46;94578.66;;;14.96;100.00
20003;BME280;10162;41.600;23.806;2024-03-02T11:12:36;94605.81;;;15.41;100.00
20003;BME280;10162;41.600;23.806;2024-03-02T11:18:58;94597.00;;;15.19;100.00
20003;BME280;10162;41.600;23.806;2024-03-02T11:21:24;94593.41;;;14.57;100.00
20003;BME280;10162;41.600;23.806;2024-03-02T11:36:54;94600.38;;;13.28;100.00
20003;BME280;10162;41.600;23.806;2024-03-02T11:39:20;94576.03;;;12.61;100.00
20003;BME280;10162;41.600;23.806;2024-03-02T11:41:45;94569.06;;;12.85;100.00
20003;BME280;10162;41.600;23.806;2024-03-02T11:48:07;94561.81;;;12.99;100.00
20003;BME280;10162;41.600;23.806;2024-03-02T11:56:58;94584.25;;;13.13;100.00
20003;BME280;10162;41.600;23.806;2024-03-02T11:59:26;94575.75;;;13.29;100.00
20003;BME280;10162;41.600;23.806;2024-03-02T12:01:52;94569.06;;;12.85;100.00
20003;BME280;10162;41.600;23.806;2024-03-02T12:08:12;94569.59;;;12.75;100.00
20003;BME280;10162;41.600;23.806;2024-03-02T12:10:38;94568.56;;;12.76;100.00
20003;BME280;10162;41.600;23.806;2024-03-02T12:13:16;94560.00;;;12.69;100.00
20003;BME280;10162;41.600;23.806;2024-03-02T12:15:42;94569.75;;;12.80;100.00
20003;BME280;10162;41.600;23.806;2024-03-02T12:18:07;94559.88;;;12.46;100.00
20003;BME280;10162;41.600;23.806;2024-03-02T12:20:34;94570.03;;;12.54;100.00
20003;BME280;10162;41.600;23.806;2024-03-02T12:26:54;94561.44;;;12.65;100.00
20003;BME280;10162;41.600;23.806;2024-03-02T12:29:36;94560.94;;;12.75;100.00
20003;BME280;10162;41.600;23.806;2024-03-02T12:32:02;94548.06;;;12.55;100.00
20003;BME280;10162;41.600;23.806;2024-03-02T12:37:58;94555.81;;;12.80;100.00
20003;BME280;10162;41.600;23.806;2024-03-02T12:40:24;94554.56;;;12.82;100.00
20003;BME280;10162;41.600;23.806;2024-03-02T12:46:44;94555.00;;;12.79;100.00
20003;BME280;10162;41.600;23.806;2024-03-02T12:49:14;94549.72;;;12.68;100.00
20003;BME280;10162;41.600;23.806;2024-03-02T12:51:46;94542.78;;;12.73;100.00
20003;BME280;10162;41.600;23.806;2024-03-02T12:54:18;94549.09;;;12.84;100.00
20003;BME280;10162;41.600;23.806;2024-03-02T12:56:44;94560.81;;;12.70;100.00
20003;BME280;10162;41.600;23.806;2024-03-02T12:59:23;94555.19;;;12.66;100.00
20003;BME280;10162;41.600;23.806;2024-03-02T13:01:56;94562.28;;;12.77;100.00
20003;BME280;10162;41.600;23.806;2024-03-02T13:07:49;94556.66;;;12.44;100.00
20003;BME280;10162;41.600;23.806;2024-03-02T13:10:16;94550.53;;;12.50;100.00
20003;BME280;10162;41.600;23.806;2024-03-02T13:16:04;94559.03;;;13.12;100.00
20003;BME280;10162;41.600;23.806;2024-03-02T13:18:33;94556.41;;;13.12;100.00
20003;BME280;10162;41.600;23.806;2024-03-02T13:20:59;94559.22;;;13.10;100.00
20003;BME280;10162;41.600;23.806;2024-03-02T13:23:29;94555.31;;;13.01;100.00
20003;BME280;10162;41.600;23.806;2024-03-02T13:25:57;94561.66;;;13.12;100.00
20003;BME280;10162;41.600;23.806;2024-03-02T13:28:24;94559.66;;;13.26;100.00
20003;BME280;10162;41.600;23.806;2024-03-02T13:30:50;94542.25;;;13.13;100.00
20003;BME280;10162;41.600;23.806;2024-03-02T13:37:10;94560.09;;;13.22;100.00
20003;BME280;10162;41.600;23.806;2024-03-02T13:39:35;94550.19;;;13.06;100.00
20003;BME280;10162;41.600;23.806;2024-03-02T13:42:11;94586.13;;;13.24;100.00
20003;BME280;10162;41.600;23.806;2024-03-02T13:47:44;94567.81;;;12.88;100.00
20003;BME280;10162;41.600;23.806;2024-03-02T13:50:10;94570.91;;;13.14;100.00
20003;BME280;10162;41.600;23.806;2024-03-02T13:52:36;94537.22;;;12.81;100.00
20003;BME280;10162;41.600;23.806;2024-03-02T13:55:01;94559.41;;;13.15;100.00
20003;BME280;10162;41.600;23.806;2024-03-02T13:57:27;94563.28;;;12.95;100.00
20003;BME280;10162;41.600;23.806;2024-03-02T13:59:54;94563.75;;;12.73;100.00
20003;BME280;10162;41.600;23.806;2024-03-02T14:02:20;94557.84;;;12.78;100.00
20003;BME280;10162;41.600;23.806;2024-03-02T14:08:40;94532.91;;;13.17;100.00
20003;BME280;10162;41.600;23.806;2024-03-02T14:11:05;94546.28;;;13.27;100.00
20003;BME280;10162;41.600;23.806;2024-03-02T14:13:34;94544.84;;;13.43;100.00
20003;BME280;10162;41.600;23.806;2024-03-02T14:16:00;94539.25;;;13.74;100.00
20003;BME280;10162;41.600;23.806;2024-03-02T14:18:26;94535.25;;;13.48;100.00
20003;BME280;10162;41.600;23.806;2024-03-02T14:20:51;94545.91;;;14.12;100.00
20003;BME280;10162;41.600;23.806;2024-03-02T14:23:38;94556.69;;;14.90;100.00
20003;BME280;10162;41.600;23.806;2024-03-02T14:26:04;94544.47;;;15.57;100.00
20003;BME280;10162;41.600;23.806;2024-03-02T14:28:29;94550.25;;;15.26;100.00
20003;BME280;10162;41.600;23.806;2024-03-02T14:30:55;94554.69;;;15.54;100.00
20003;BME280;10162;41.600;23.806;2024-03-02T14:37:15;94542.16;;;15.16;98.40
20003;BME280;10162;41.600;23.806;2024-03-02T14:39:41;94541.47;;;15.37;100.00
20003;BME280;10162;41.600;23.806;2024-03-02T14:42:06;94558.31;;;15.36;100.00
20003;BME280;10162;41.600;23.806;2024-03-02T14:47:34;94542.63;;;15.13;100.00
20003;BME280;10162;41.600;23.806;2024-03-02T14:50:01;94537.22;;;15.19;100.00